createdAt,value
2019-03-03T00:00:36.051Z,1004.79
2019-03-03T00:01:36.040Z,1004.76
2019-03-03T00:02:36.030Z,1004.74
2019-03-03T00:03:36.027Z,1004.72
2019-03-03T00:04:36.009Z,1004.72
2019-03-03T00:05:35.997Z,1004.76
2019-03-03T00:06:35.986Z,1004.81
2019-03-03T00:07:35.975Z,1004.79
2019-03-03T00:08:35.986Z,1004.79
2019-03-03T00:09:35.954Z,1004.72
2019-03-03T00:10:35.957Z,1004.75
2019-03-03T00:11:35.931Z,1004.71
2019-03-03T00:12:35.921Z,1004.64
2019-03-03T00:13:35.921Z,1004.66
2019-03-03T00:14:35.900Z,1004.59
2019-03-03T00:15:35.889Z,1004.59
2019-03-03T00:16:35.882Z,1004.57
2019-03-03T00:17:35.868Z,1004.55
2019-03-03T00:18:35.865Z,1004.49
2019-03-03T00:19:35.845Z,1004.40
2019-03-03T00:20:35.834Z,1004.40
2019-03-03T00:21:35.824Z,1004.39
2019-03-03T00:22:35.813Z,1004.35
2019-03-03T00:23:35.816Z,1004.34
2019-03-03T00:24:35.792Z,1004.39
2019-03-03T00:25:35.784Z,1004.36
2019-03-03T00:26:35.770Z,1004.33
2019-03-03T00:27:35.759Z,1004.30
2019-03-03T00:28:35.759Z,1004.32
2019-03-03T00:29:35.737Z,1004.27
2019-03-03T00:30:35.725Z,1004.30
2019-03-03T00:31:35.715Z,1004.27
2019-03-03T00:32:35.704Z,1004.29
2019-03-03T00:33:35.704Z,1004.32
2019-03-03T00:34:35.683Z,1004.26
2019-03-03T00:35:35.671Z,1004.27
2019-03-03T00:36:35.665Z,1004.29
2019-03-03T00:37:35.651Z,1004.28
2019-03-03T00:38:35.648Z,1004.27
2019-03-03T00:39:35.628Z,1004.19
2019-03-03T00:40:35.618Z,1004.21
2019-03-03T00:41:35.608Z,1004.25
2019-03-03T00:42:35.595Z,1004.21
2019-03-03T00:43:35.610Z,1004.17
2019-03-03T00:44:35.573Z,1004.10
2019-03-03T00:45:35.562Z,1004.13
2019-03-03T00:46:35.555Z,1004.22
2019-03-03T00:47:35.542Z,1004.18
2019-03-03T00:48:35.531Z,1004.20
2019-03-03T00:49:35.528Z,1004.11
2019-03-03T00:50:35.508Z,1004.13
2019-03-03T00:51:35.497Z,1004.08
2019-03-03T00:52:35.486Z,1004.12
2019-03-03T00:53:35.476Z,1004.19
2019-03-03T00:54:35.480Z,1004.14
2019-03-03T00:55:35.454Z,1004.12
2019-03-03T00:56:35.443Z,1004.16
2019-03-03T00:57:35.431Z,1004.10
2019-03-03T00:58:35.421Z,1004.04
2019-03-03T00:59:35.418Z,1004.05
2019-03-03T01:00:35.399Z,1004.07
2019-03-03T01:01:35.387Z,1004.06
2019-03-03T01:02:35.377Z,1004.07
2019-03-03T01:03:35.366Z,1004.01
2019-03-03T01:04:35.364Z,1004.06
2019-03-03T01:05:35.344Z,1004.01
2019-03-03T01:06:35.340Z,1003.98
2019-03-03T01:07:35.322Z,1003.98
2019-03-03T01:08:35.311Z,1004.02
2019-03-03T01:09:35.312Z,1003.99
2019-03-03T01:10:35.291Z,1003.97
2019-03-03T01:11:35.279Z,1003.99
2019-03-03T01:12:35.268Z,1004.02
2019-03-03T01:13:35.256Z,1004.03
2019-03-03T01:14:35.255Z,1003.96
2019-03-03T01:15:35.235Z,1003.94
2019-03-03T01:16:35.225Z,1003.96
2019-03-03T01:17:35.217Z,1003.96
2019-03-03T01:18:35.202Z,1003.96
2019-03-03T01:19:35.242Z,1003.96
2019-03-03T01:20:35.180Z,1004.03
2019-03-03T01:21:35.170Z,1003.96
2019-03-03T01:22:35.160Z,1003.98
2019-03-03T01:23:35.152Z,1003.95
2019-03-03T01:24:35.138Z,1004.08
2019-03-03T01:25:35.138Z,1004.02
2019-03-03T01:26:35.147Z,1004.01
2019-03-03T01:27:35.112Z,1004.01
2019-03-03T01:28:35.101Z,1004.03
2019-03-03T01:29:35.087Z,1003.99
2019-03-03T01:30:35.082Z,1004.00
2019-03-03T01:31:35.061Z,1004.02
2019-03-03T01:32:35.053Z,1004.00
2019-03-03T01:33:35.045Z,1004.04
2019-03-03T01:34:35.028Z,1004.03
2019-03-03T01:35:35.026Z,1004.01
2019-03-03T01:36:35.006Z,1004.01
2019-03-03T01:37:34.996Z,1003.98
2019-03-03T01:38:34.985Z,1003.97
2019-03-03T01:39:34.975Z,1003.96
2019-03-03T01:40:34.978Z,1003.93
2019-03-03T01:41:34.962Z,1003.91
2019-03-03T01:42:34.942Z,1003.85
2019-03-03T01:43:34.931Z,1003.84
2019-03-03T01:44:34.920Z,1003.82
2019-03-03T01:45:34.922Z,1003.81
2019-03-03T01:46:34.901Z,1003.82
2019-03-03T01:47:34.888Z,1003.78
2019-03-03T01:48:34.877Z,1003.81
2019-03-03T01:49:34.919Z,1003.76
2019-03-03T01:50:34.863Z,1003.75
2019-03-03T01:51:34.849Z,1003.72
2019-03-03T01:52:34.833Z,1003.76
2019-03-03T01:53:34.873Z,1003.65
2019-03-03T01:54:34.812Z,1003.64
2019-03-03T01:55:34.812Z,1003.61
2019-03-03T01:56:34.793Z,1003.58
2019-03-03T01:57:34.780Z,1003.59
2019-03-03T01:58:34.802Z,1003.62
2019-03-03T01:59:34.757Z,1003.60
2019-03-03T02:00:34.760Z,1003.58
2019-03-03T02:01:34.740Z,1003.60
2019-03-03T02:02:34.724Z,1003.63
2019-03-03T02:03:34.715Z,1003.59
2019-03-03T02:04:34.707Z,1003.53
2019-03-03T02:05:34.694Z,1003.53
2019-03-03T02:06:34.691Z,1003.47
2019-03-03T02:07:34.669Z,1003.44
2019-03-03T02:08:34.659Z,1003.50
2019-03-03T02:09:34.650Z,1003.47
2019-03-03T02:10:34.637Z,1003.45
2019-03-03T02:11:34.640Z,1003.40
2019-03-03T02:12:34.614Z,1003.38
2019-03-03T02:13:34.608Z,1003.39
2019-03-03T02:14:34.597Z,1003.41
2019-03-03T02:15:34.587Z,1003.37
2019-03-03T02:16:34.580Z,1003.39
2019-03-03T02:17:34.562Z,1003.43
2019-03-03T02:18:34.554Z,1003.41
2019-03-03T02:19:34.541Z,1003.36
2019-03-03T02:20:34.528Z,1003.39
2019-03-03T02:21:34.526Z,1003.40
2019-03-03T02:22:34.506Z,1003.40
2019-03-03T02:23:34.498Z,1003.37
2019-03-03T02:24:34.490Z,1003.33
2019-03-03T02:25:34.473Z,1003.30
2019-03-03T02:26:34.475Z,1003.28
2019-03-03T02:27:34.451Z,1003.32
2019-03-03T02:28:34.440Z,1003.28
2019-03-03T02:29:34.431Z,1003.28
2019-03-03T02:30:34.420Z,1003.31
2019-03-03T02:31:34.423Z,1003.29
2019-03-03T02:32:34.397Z,1003.30
2019-03-03T02:33:34.402Z,1003.23
2019-03-03T02:34:34.376Z,1003.23
2019-03-03T02:35:34.366Z,1003.25
2019-03-03T02:36:34.367Z,1003.23
2019-03-03T02:37:34.345Z,1003.25
2019-03-03T02:38:34.341Z,1003.22
2019-03-03T02:39:34.321Z,1003.25
2019-03-03T02:40:34.309Z,1003.22
2019-03-03T02:41:34.308Z,1003.18
2019-03-03T02:42:34.306Z,1003.16
2019-03-03T02:43:34.283Z,1003.20
2019-03-03T02:44:34.269Z,1003.21
2019-03-03T02:45:34.257Z,1003.19
2019-03-03T02:46:34.253Z,1003.13
2019-03-03T02:47:34.239Z,1003.14
2019-03-03T02:48:34.223Z,1003.13
2019-03-03T02:49:34.216Z,1003.14
2019-03-03T02:50:34.204Z,1003.16
2019-03-03T02:51:34.199Z,1003.12
2019-03-03T02:52:34.180Z,1003.11
2019-03-03T02:53:34.171Z,1003.11
2019-03-03T02:54:34.159Z,1003.11
2019-03-03T02:55:34.147Z,1003.15
2019-03-03T02:56:34.145Z,1003.07
2019-03-03T02:57:34.126Z,1003.15
2019-03-03T02:58:34.123Z,1003.10
2019-03-03T02:59:34.107Z,1003.06
2019-03-03T03:00:34.096Z,1003.07
2019-03-03T03:01:34.092Z,1003.11
2019-03-03T03:02:34.104Z,1003.07
2019-03-03T03:03:34.063Z,1003.03
2019-03-03T03:04:34.050Z,1003.04
2019-03-03T03:05:34.041Z,1003.05
2019-03-03T03:06:34.054Z,1002.97
2019-03-03T03:07:34.022Z,1002.94
2019-03-03T03:08:34.008Z,1002.97
2019-03-03T03:09:33.997Z,1003.04
2019-03-03T03:10:33.987Z,1003.03
2019-03-03T03:11:33.983Z,1003.00
2019-03-03T03:12:33.974Z,1002.99
2019-03-03T03:13:33.960Z,1003.00
2019-03-03T03:14:33.957Z,1002.98
2019-03-03T03:15:33.933Z,1002.92
2019-03-03T03:16:33.925Z,1002.91
2019-03-03T03:17:33.919Z,1002.91
2019-03-03T03:18:33.900Z,1002.93
2019-03-03T03:19:33.893Z,1002.88
2019-03-03T03:20:33.880Z,1002.88
2019-03-03T03:21:33.869Z,1002.90
2019-03-03T03:22:33.866Z,1002.88
2019-03-03T03:23:33.845Z,1002.82
2019-03-03T03:24:33.835Z,1002.85
2019-03-03T03:25:33.832Z,1002.80
2019-03-03T03:26:33.815Z,1002.78
2019-03-03T03:27:33.812Z,1002.73
2019-03-03T03:28:33.793Z,1002.76
2019-03-03T03:29:33.783Z,1002.77
2019-03-03T03:30:33.772Z,1002.81
2019-03-03T03:31:33.762Z,1002.76
2019-03-03T03:32:33.771Z,1002.71
2019-03-03T03:33:33.741Z,1002.70
2019-03-03T03:34:33.729Z,1002.62
2019-03-03T03:35:33.725Z,1002.66
2019-03-03T03:36:36.578Z,1002.60
2019-03-03T03:37:33.707Z,1002.64
2019-03-03T03:38:33.686Z,1002.53
2019-03-03T03:39:33.676Z,1002.56
2019-03-03T03:40:33.664Z,1002.61
2019-03-03T03:41:33.661Z,1002.52
2019-03-03T03:42:33.654Z,1002.59
2019-03-03T03:43:33.635Z,1002.55
2019-03-03T03:44:33.622Z,1002.56
2019-03-03T03:45:33.612Z,1002.50
2019-03-03T03:46:33.604Z,1002.47
2019-03-03T03:47:33.597Z,1002.44
2019-03-03T03:48:33.579Z,1002.47
2019-03-03T03:49:33.568Z,1002.41
2019-03-03T03:50:33.558Z,1002.39
2019-03-03T03:51:33.552Z,1002.38
2019-03-03T03:52:33.545Z,1002.42
2019-03-03T03:53:33.530Z,1002.44
2019-03-03T03:54:33.514Z,1002.32
2019-03-03T03:55:33.508Z,1002.30
2019-03-03T03:56:33.495Z,1002.29
2019-03-03T03:57:33.519Z,1002.27
2019-03-03T03:58:33.480Z,1002.26
2019-03-03T03:59:33.460Z,1002.25
2019-03-03T04:00:33.450Z,1002.21
2019-03-03T04:01:33.437Z,1002.22
2019-03-03T04:02:33.435Z,1002.24
2019-03-03T04:03:33.429Z,1002.19
2019-03-03T04:04:33.409Z,1002.19
2019-03-03T04:05:33.394Z,1002.21
2019-03-03T04:06:33.390Z,1002.20
2019-03-03T04:07:33.374Z,1002.13
2019-03-03T04:08:33.369Z,1002.20
2019-03-03T04:09:33.355Z,1002.21
2019-03-03T04:10:33.347Z,1002.17
2019-03-03T04:11:33.330Z,1002.13
2019-03-03T04:12:33.317Z,1002.12
2019-03-03T04:13:33.326Z,1002.12
2019-03-03T04:14:33.301Z,1002.17
2019-03-03T04:15:33.285Z,1002.10
2019-03-03T04:16:33.275Z,1002.08
2019-03-03T04:17:33.263Z,1002.06
2019-03-03T04:18:33.270Z,1002.01
2019-03-03T04:19:33.253Z,1002.00
2019-03-03T04:20:33.231Z,1001.98
2019-03-03T04:21:33.221Z,1001.94
2019-03-03T04:22:33.211Z,1001.89
2019-03-03T04:23:33.209Z,1001.83
2019-03-03T04:24:33.188Z,1001.90
2019-03-03T04:25:33.178Z,1001.90
2019-03-03T04:26:33.168Z,1001.82
2019-03-03T04:27:33.159Z,1001.85
2019-03-03T04:28:33.155Z,1001.87
2019-03-03T04:29:33.136Z,1001.83
2019-03-03T04:30:33.124Z,1001.89
2019-03-03T04:31:33.114Z,1001.86
2019-03-03T04:32:33.101Z,1001.78
2019-03-03T04:33:33.115Z,1001.80
2019-03-03T04:34:33.084Z,1001.74
2019-03-03T04:35:33.070Z,1001.76
2019-03-03T04:36:33.061Z,1001.65
2019-03-03T04:37:33.047Z,1001.58
2019-03-03T04:38:33.038Z,1001.62
2019-03-03T04:39:33.034Z,1001.71
2019-03-03T04:40:33.015Z,1001.66
2019-03-03T04:41:33.004Z,1001.70
2019-03-03T04:42:32.992Z,1001.67
2019-03-03T04:43:32.987Z,1001.59
2019-03-03T04:44:32.980Z,1001.57
2019-03-03T04:45:32.959Z,1001.66
2019-03-03T04:46:32.948Z,1001.63
2019-03-03T04:47:32.939Z,1001.68
2019-03-03T04:48:32.928Z,1001.67
2019-03-03T04:49:32.925Z,1001.68
2019-03-03T04:50:32.905Z,1001.69
2019-03-03T04:51:32.894Z,1001.68
2019-03-03T04:52:32.884Z,1001.66
2019-03-03T04:53:32.874Z,1001.64
2019-03-03T04:54:32.874Z,1001.65
2019-03-03T04:55:32.851Z,1001.63
2019-03-03T04:56:32.843Z,1001.58
2019-03-03T04:57:32.830Z,1001.57
2019-03-03T04:58:32.818Z,1001.52
2019-03-03T04:59:32.816Z,1001.53
2019-03-03T05:00:32.799Z,1001.59
2019-03-03T05:01:32.786Z,1001.55
2019-03-03T05:02:32.781Z,1001.59
2019-03-03T05:03:32.764Z,1001.53
2019-03-03T05:04:32.762Z,1001.56
2019-03-03T05:05:32.743Z,1001.60
2019-03-03T05:06:32.733Z,1001.59
2019-03-03T05:07:32.724Z,1001.57
2019-03-03T05:08:32.710Z,1001.58
2019-03-03T05:09:32.731Z,1001.59
2019-03-03T05:10:32.689Z,1001.61
2019-03-03T05:11:32.681Z,1001.58
2019-03-03T05:12:32.673Z,1001.54
2019-03-03T05:13:32.657Z,1001.58
2019-03-03T05:14:32.647Z,1001.52
2019-03-03T05:15:32.648Z,1001.55
2019-03-03T05:16:32.626Z,1001.52
2019-03-03T05:17:32.615Z,1001.51
2019-03-03T05:18:32.604Z,1001.56
2019-03-03T05:19:32.592Z,1001.48
2019-03-03T05:20:32.595Z,1001.48
2019-03-03T05:21:32.572Z,1001.51
2019-03-03T05:22:32.561Z,1001.47
2019-03-03T05:23:32.549Z,1001.47
2019-03-03T05:24:34.592Z,1001.47
2019-03-03T05:25:32.541Z,1001.45
2019-03-03T05:26:32.518Z,1001.54
2019-03-03T05:27:32.507Z,1001.46
2019-03-03T05:28:32.497Z,1001.53
2019-03-03T05:29:32.487Z,1001.48
2019-03-03T05:30:32.494Z,1001.49
2019-03-03T05:31:32.476Z,1001.51
2019-03-03T05:32:32.454Z,1001.50
2019-03-03T05:33:32.444Z,1001.54
2019-03-03T05:34:32.435Z,1001.42
2019-03-03T05:35:32.430Z,1001.40
2019-03-03T05:36:32.411Z,1001.35
2019-03-03T05:37:32.404Z,1001.35
2019-03-03T05:38:32.392Z,1001.38
2019-03-03T05:39:32.380Z,1001.39
2019-03-03T05:40:32.378Z,1001.35
2019-03-03T05:41:32.358Z,1001.33
2019-03-03T05:42:32.350Z,1001.32
2019-03-03T05:43:32.339Z,1001.30
2019-03-03T05:44:32.325Z,1001.36
2019-03-03T05:45:32.324Z,1001.35
2019-03-03T05:46:32.304Z,1001.34
2019-03-03T05:47:32.298Z,1001.28
2019-03-03T05:48:32.283Z,1001.25
2019-03-03T05:49:32.274Z,1001.22
2019-03-03T05:50:32.270Z,1001.18
2019-03-03T05:51:32.250Z,1001.18
2019-03-03T05:52:32.240Z,1001.19
2019-03-03T05:53:32.229Z,1001.13
2019-03-03T05:54:32.218Z,1001.10
2019-03-03T05:55:32.220Z,1001.07
2019-03-03T05:56:32.198Z,1001.11
2019-03-03T05:57:32.186Z,1001.10
2019-03-03T05:58:32.175Z,1001.13
2019-03-03T05:59:32.165Z,1001.08
2019-03-03T06:00:32.187Z,1001.11
2019-03-03T06:01:32.143Z,1001.18
2019-03-03T06:02:32.132Z,1001.14
2019-03-03T06:03:32.122Z,1001.19
2019-03-03T06:04:32.111Z,1001.21
2019-03-03T06:05:32.099Z,1001.17
2019-03-03T06:06:32.098Z,1001.19
2019-03-03T06:07:32.079Z,1001.18
2019-03-03T06:08:32.069Z,1001.20
2019-03-03T06:09:32.058Z,1001.16
2019-03-03T06:10:32.047Z,1001.14
2019-03-03T06:11:32.044Z,1001.06
2019-03-03T06:12:32.040Z,1001.05
2019-03-03T06:13:32.016Z,1001.10
2019-03-03T06:14:32.003Z,1001.08
2019-03-03T06:15:31.993Z,1001.02
2019-03-03T06:16:31.990Z,1000.99
2019-03-03T06:17:31.975Z,1000.98
2019-03-03T06:18:31.960Z,1001.02
2019-03-03T06:19:31.993Z,1001.00
2019-03-03T06:20:31.938Z,1001.01
2019-03-03T06:21:31.937Z,1000.95
2019-03-03T06:22:31.918Z,1000.98
2019-03-03T06:23:31.905Z,1000.99
2019-03-03T06:24:31.895Z,1000.90
2019-03-03T06:25:31.884Z,1000.91
2019-03-03T06:26:31.881Z,1000.96
2019-03-03T06:27:31.863Z,1000.92
2019-03-03T06:28:31.852Z,1000.95
2019-03-03T06:29:31.847Z,1000.95
2019-03-03T06:30:31.831Z,1000.91
2019-03-03T06:31:31.828Z,1000.90
2019-03-03T06:32:31.808Z,1000.87
2019-03-03T06:33:31.797Z,1000.85
2019-03-03T06:34:31.789Z,1000.86
2019-03-03T06:35:31.778Z,1000.82
2019-03-03T06:36:31.774Z,1000.83
2019-03-03T06:37:31.755Z,1000.79
2019-03-03T06:38:31.747Z,1000.76
2019-03-03T06:39:31.735Z,1000.72
2019-03-03T06:40:31.745Z,1000.71
2019-03-03T06:41:31.723Z,1000.65
2019-03-03T06:42:31.698Z,1000.63
2019-03-03T06:43:31.695Z,1000.58
2019-03-03T06:44:31.679Z,1000.54
2019-03-03T06:45:31.667Z,1000.57
2019-03-03T06:46:31.664Z,1000.62
2019-03-03T06:47:31.646Z,1000.58
2019-03-03T06:48:31.635Z,1000.60
2019-03-03T06:49:31.625Z,1000.57
2019-03-03T06:50:31.614Z,1000.55
2019-03-03T06:51:31.611Z,1000.53
2019-03-03T06:52:31.592Z,1000.55
2019-03-03T06:53:31.595Z,1000.51
2019-03-03T06:54:31.570Z,1000.47
2019-03-03T06:55:31.558Z,1000.55
2019-03-03T06:56:31.556Z,1000.52
2019-03-03T06:57:31.540Z,1000.53
2019-03-03T06:58:31.533Z,1000.50
2019-03-03T06:59:31.515Z,1000.47
2019-03-03T07:00:31.519Z,1000.48
2019-03-03T07:01:31.502Z,1000.56
2019-03-03T07:02:31.482Z,1000.57
2019-03-03T07:03:31.473Z,1000.56
2019-03-03T07:04:31.465Z,1000.54
2019-03-03T07:05:31.450Z,1000.55
2019-03-03T07:06:31.447Z,1000.54
2019-03-03T07:07:31.428Z,1000.45
2019-03-03T07:08:31.422Z,1000.47
2019-03-03T07:09:31.406Z,1000.52
2019-03-03T07:10:31.395Z,1000.46
2019-03-03T07:11:31.392Z,1000.43
2019-03-03T07:12:31.374Z,1000.44
2019-03-03T07:13:31.362Z,1000.44
2019-03-03T07:14:31.351Z,1000.45
2019-03-03T07:15:31.341Z,1000.41
2019-03-03T07:16:31.338Z,1000.44
2019-03-03T07:17:31.318Z,1000.37
2019-03-03T07:18:31.310Z,1000.38
2019-03-03T07:19:31.296Z,1000.39
2019-03-03T07:20:31.286Z,1000.47
2019-03-03T07:21:31.318Z,1000.46
2019-03-03T07:22:31.266Z,1000.44
2019-03-03T07:23:31.254Z,1000.45
2019-03-03T07:24:31.243Z,1000.41
2019-03-03T07:25:31.232Z,1000.40
2019-03-03T07:26:31.225Z,1000.39
2019-03-03T07:27:31.219Z,1000.43
2019-03-03T07:28:31.198Z,1000.38
2019-03-03T07:29:31.187Z,1000.33
2019-03-03T07:30:31.178Z,1000.32
2019-03-03T07:31:31.167Z,1000.30
2019-03-03T07:32:31.164Z,1000.41
2019-03-03T07:33:31.146Z,1000.40
2019-03-03T07:34:31.133Z,1000.42
2019-03-03T07:35:31.122Z,1000.25
2019-03-03T07:36:31.112Z,1000.37
2019-03-03T07:37:31.109Z,1000.37
2019-03-03T07:38:31.089Z,1000.35
2019-03-03T07:39:31.079Z,1000.31
2019-03-03T07:40:31.068Z,1000.31
2019-03-03T07:41:31.057Z,1000.21
2019-03-03T07:42:31.057Z,1000.21
2019-03-03T07:43:31.034Z,1000.24
2019-03-03T07:44:31.026Z,1000.20
2019-03-03T07:45:31.012Z,1000.23
2019-03-03T07:46:31.003Z,1000.12
2019-03-03T07:47:30.999Z,1000.18
2019-03-03T07:48:30.979Z,1000.26
2019-03-03T07:49:30.970Z,1000.11
2019-03-03T07:50:30.970Z,1000.18
2019-03-03T07:51:30.950Z,1000.25
2019-03-03T07:52:32.904Z,1000.10
2019-03-03T07:53:30.926Z,1000.15
2019-03-03T07:54:30.918Z,1000.22
2019-03-03T07:55:30.905Z,1000.19
2019-03-03T07:56:30.894Z,1000.17
2019-03-03T07:57:30.890Z,1000.15
2019-03-03T07:58:30.870Z,1000.16
2019-03-03T07:59:30.859Z,1000.18
2019-03-03T08:00:30.852Z,1000.05
2019-03-03T08:01:30.839Z,1000.11
2019-03-03T08:02:30.855Z,1000.11
2019-03-03T08:03:30.817Z,1000.13
2019-03-03T08:04:30.806Z,1000.08
2019-03-03T08:05:30.796Z,1000.06
2019-03-03T08:06:30.785Z,1000.12
2019-03-03T08:07:30.786Z,1000.08
2019-03-03T08:08:30.763Z,1000.10
2019-03-03T08:09:30.751Z,1000.05
2019-03-03T08:10:30.742Z,1000.07
2019-03-03T08:11:30.731Z,1000.04
2019-03-03T08:12:30.727Z,1000.04
2019-03-03T08:13:30.711Z,1000.08
2019-03-03T08:14:30.698Z,999.98
2019-03-03T08:15:30.686Z,1000.03
2019-03-03T08:16:30.676Z,1000.03
2019-03-03T08:17:30.700Z,1000.06
2019-03-03T08:18:30.657Z,1000.04
2019-03-03T08:19:30.643Z,1000.05
2019-03-03T08:20:30.633Z,1000.05
2019-03-03T08:21:30.622Z,1000.04
2019-03-03T08:22:30.621Z,1000.04
2019-03-03T08:23:30.651Z,1000.05
2019-03-03T08:24:30.589Z,999.99
2019-03-03T08:25:30.578Z,999.99
2019-03-03T08:26:30.570Z,999.96
2019-03-03T08:27:30.565Z,999.96
2019-03-03T08:28:30.547Z,999.95
2019-03-03T08:29:30.538Z,999.92
2019-03-03T08:30:31.102Z,999.92
2019-03-03T08:31:30.513Z,1000.02
2019-03-03T08:32:30.510Z,1000.02
2019-03-03T08:33:30.491Z,999.99
2019-03-03T08:34:30.483Z,1000.02
2019-03-03T08:35:30.513Z,999.94
2019-03-03T08:36:30.460Z,999.95
2019-03-03T08:37:30.456Z,999.90
2019-03-03T08:38:30.437Z,999.90
2019-03-03T08:39:30.426Z,999.94
2019-03-03T08:40:30.421Z,999.93
2019-03-03T08:41:30.406Z,999.91
2019-03-03T08:42:30.428Z,999.96
2019-03-03T08:43:30.383Z,999.91
2019-03-03T08:44:30.372Z,999.95
2019-03-03T08:45:30.365Z,999.95
2019-03-03T08:46:30.352Z,999.86
2019-03-03T08:47:30.341Z,999.91
2019-03-03T08:48:30.339Z,999.89
2019-03-03T08:49:30.319Z,999.87
2019-03-03T08:50:30.307Z,999.87
2019-03-03T08:51:30.297Z,1000.07
2019-03-03T08:52:30.287Z,1000.17
2019-03-03T08:53:30.286Z,1000.12
2019-03-03T08:54:30.267Z,1000.05
2019-03-03T08:55:30.256Z,1000.12
2019-03-03T08:56:30.243Z,1000.09
2019-03-03T08:57:30.234Z,1000.10
2019-03-03T08:58:30.232Z,1000.07
2019-03-03T08:59:30.214Z,1000.06
2019-03-03T09:00:30.208Z,1000.07
2019-03-03T09:01:30.197Z,1000.05
2019-03-03T09:02:30.180Z,999.99
2019-03-03T09:03:30.204Z,999.96
2019-03-03T09:04:30.157Z,1000.00
2019-03-03T09:05:30.149Z,1000.10
2019-03-03T09:06:30.136Z,1000.10
2019-03-03T09:07:30.140Z,1000.05
2019-03-03T09:08:30.114Z,1000.00
2019-03-03T09:09:30.130Z,999.98
2019-03-03T09:10:30.098Z,1000.00
2019-03-03T09:11:30.086Z,999.96
2019-03-03T09:12:30.071Z,999.99
2019-03-03T09:13:30.066Z,999.98
2019-03-03T09:14:30.063Z,999.92
2019-03-03T09:15:30.040Z,999.97
2019-03-03T09:16:30.032Z,1000.01
2019-03-03T09:17:30.024Z,1000.00
2019-03-03T09:18:30.016Z,999.93
2019-03-03T09:19:30.007Z,1000.02
2019-03-03T09:20:29.986Z,1000.02
2019-03-03T09:21:29.979Z,1000.03
2019-03-03T09:22:29.965Z,1000.01
2019-03-03T09:23:29.954Z,999.95
2019-03-03T09:24:29.953Z,1000.04
2019-03-03T09:25:29.933Z,999.95
2019-03-03T09:26:29.923Z,999.96
2019-03-03T09:27:29.912Z,1000.02
2019-03-03T09:28:29.902Z,1000.11
2019-03-03T09:29:29.906Z,1000.03
2019-03-03T09:30:29.881Z,1000.04
2019-03-03T09:31:29.893Z,1000.03
2019-03-03T09:32:29.859Z,1000.09
2019-03-03T09:33:29.847Z,1000.06
2019-03-03T09:34:29.838Z,1000.04
2019-03-03T09:35:29.842Z,1000.01
2019-03-03T09:36:29.815Z,1000.12
2019-03-03T09:37:29.805Z,1000.11
2019-03-03T09:38:29.794Z,1000.03
2019-03-03T09:39:29.785Z,1000.06
2019-03-03T09:40:29.780Z,1000.05
2019-03-03T09:41:29.762Z,1000.04
2019-03-03T09:42:29.751Z,999.98
2019-03-03T09:43:29.740Z,1000.00
2019-03-03T09:44:29.730Z,1000.04
2019-03-03T09:45:29.729Z,1000.07
2019-03-03T09:46:29.713Z,1000.01
2019-03-03T09:47:29.699Z,1000.01
2019-03-03T09:48:29.687Z,1000.11
2019-03-03T09:49:29.677Z,1000.03
2019-03-03T09:50:29.677Z,1000.04
2019-03-03T09:51:29.658Z,1000.00
2019-03-03T09:52:29.649Z,1000.02
2019-03-03T09:53:29.636Z,999.99
2019-03-03T09:54:29.623Z,999.93
2019-03-03T09:55:29.622Z,1000.01
2019-03-03T09:56:29.605Z,1000.03
2019-03-03T09:57:29.590Z,1000.02
2019-03-03T09:58:29.580Z,1000.06
2019-03-03T09:59:29.569Z,1000.07
2019-03-03T10:00:29.568Z,1000.12
2019-03-03T10:01:29.551Z,1000.08
2019-03-03T10:02:29.538Z,1000.05
2019-03-03T10:03:29.525Z,1000.05
2019-03-03T10:04:29.514Z,1000.05
2019-03-03T10:05:29.513Z,1000.13
2019-03-03T10:06:29.493Z,1000.12
2019-03-03T10:07:29.482Z,1000.15
2019-03-03T10:08:29.474Z,1000.12
2019-03-03T10:09:29.461Z,1000.04
2019-03-03T10:10:29.458Z,1000.07
2019-03-03T10:11:29.440Z,1000.09
2019-03-03T10:12:29.428Z,1000.11
2019-03-03T10:13:29.418Z,1000.05
2019-03-03T10:14:29.407Z,1000.08
2019-03-03T10:15:29.405Z,1000.06
2019-03-03T10:16:29.386Z,1000.10
2019-03-03T10:17:29.375Z,1000.07
2019-03-03T10:18:29.363Z,1000.09
2019-03-03T10:19:29.353Z,1000.12
2019-03-03T10:20:29.350Z,1000.12
2019-03-03T10:21:29.904Z,1000.20
2019-03-03T10:22:29.343Z,1000.10
2019-03-03T10:23:29.310Z,1000.19
2019-03-03T10:24:29.300Z,1000.19
2019-03-03T10:25:29.306Z,1000.23
2019-03-03T10:26:29.279Z,1000.19
2019-03-03T10:27:29.301Z,1000.23
2019-03-03T10:28:29.261Z,1000.20
2019-03-03T10:29:29.246Z,1000.26
2019-03-03T10:30:29.244Z,1000.22
2019-03-03T10:31:29.226Z,1000.18
2019-03-03T10:32:29.214Z,1000.19
2019-03-03T10:33:29.204Z,1000.21
2019-03-03T10:34:29.199Z,1000.20
2019-03-03T10:35:29.191Z,1000.20
2019-03-03T10:36:29.171Z,1000.28
2019-03-03T10:37:29.161Z,1000.25
2019-03-03T10:38:35.879Z,1000.26
2019-03-03T10:39:30.140Z,1000.26
2019-03-03T10:40:29.136Z,1000.25
2019-03-03T10:41:29.117Z,1000.23
2019-03-03T10:42:29.105Z,1000.26
2019-03-03T10:43:29.096Z,1000.23
2019-03-03T10:44:29.086Z,1000.24
2019-03-03T10:45:29.083Z,1000.18
2019-03-03T10:46:29.064Z,1000.18
2019-03-03T10:47:29.053Z,1000.19
2019-03-03T10:48:29.050Z,1000.20
2019-03-03T10:49:29.033Z,1000.17
2019-03-03T10:50:29.032Z,1000.20
2019-03-03T10:51:29.011Z,1000.18
2019-03-03T10:52:28.998Z,1000.20
2019-03-03T10:53:28.989Z,1000.20
2019-03-03T10:54:28.982Z,1000.25
2019-03-03T10:55:28.976Z,1000.26
2019-03-03T10:56:28.956Z,1000.20
2019-03-03T10:57:30.384Z,1000.21
2019-03-03T10:58:28.934Z,1000.26
2019-03-03T10:59:28.925Z,1000.08
2019-03-03T11:00:28.922Z,1000.14
2019-03-03T11:01:28.902Z,1000.08
2019-03-03T11:02:28.891Z,1000.23
2019-03-03T11:03:28.883Z,1000.19
2019-03-03T11:04:28.870Z,1000.22
2019-03-03T11:05:28.884Z,1000.21
2019-03-03T11:06:28.848Z,1000.14
2019-03-03T11:07:28.838Z,1000.19
2019-03-03T11:08:28.827Z,1000.21
2019-03-03T11:09:28.815Z,1000.14
2019-03-03T11:10:28.805Z,1000.20
2019-03-03T11:11:28.804Z,1000.19
2019-03-03T11:12:28.783Z,1000.15
2019-03-03T11:13:28.778Z,1000.18
2019-03-03T11:14:28.761Z,1000.15
2019-03-03T11:15:28.757Z,1000.16
2019-03-03T11:16:28.747Z,1000.17
2019-03-03T11:17:28.731Z,1000.18
2019-03-03T11:18:28.720Z,1000.14
2019-03-03T11:19:28.707Z,1000.18
2019-03-03T11:20:28.696Z,1000.14
2019-03-03T11:21:28.694Z,1000.06
2019-03-03T11:22:28.674Z,1000.21
2019-03-03T11:23:28.666Z,1000.14
2019-03-03T11:24:28.652Z,1000.09
2019-03-03T11:25:28.640Z,1000.10
2019-03-03T11:26:28.638Z,1000.12
2019-03-03T11:27:28.620Z,1000.09
2019-03-03T11:28:28.610Z,999.98
2019-03-03T11:29:28.597Z,1000.12
2019-03-03T11:30:28.587Z,1000.12
2019-03-03T11:31:28.586Z,1000.05
2019-03-03T11:32:28.563Z,1000.08
2019-03-03T11:33:28.555Z,1000.05
2019-03-03T11:34:29.810Z,1000.08
2019-03-03T11:35:28.531Z,1000.13
2019-03-03T11:36:28.527Z,1000.04
2019-03-03T11:37:28.508Z,1000.05
2019-03-03T11:38:28.497Z,1000.03
2019-03-03T11:39:28.484Z,1000.06
2019-03-03T11:40:28.479Z,1000.12
2019-03-03T11:41:28.473Z,1000.07
2019-03-03T11:42:28.453Z,1000.12
2019-03-03T11:43:28.441Z,1000.07
2019-03-03T11:44:28.436Z,1000.10
2019-03-03T11:45:28.421Z,1000.05
2019-03-03T11:46:28.418Z,999.96
2019-03-03T11:47:28.397Z,999.97
2019-03-03T11:48:28.386Z,1000.03
2019-03-03T11:49:28.376Z,999.92
2019-03-03T11:50:28.364Z,999.94
2019-03-03T11:51:28.362Z,999.96
2019-03-03T11:52:28.342Z,999.97
2019-03-03T11:53:28.333Z,999.93
2019-03-03T11:54:28.320Z,999.98
2019-03-03T11:55:28.310Z,999.87
2019-03-03T11:56:28.307Z,999.90
2019-03-03T11:57:28.288Z,999.86
2019-03-03T11:58:28.279Z,999.91
2019-03-03T11:59:28.264Z,999.91
2019-03-03T12:00:28.254Z,999.87
2019-03-03T12:01:28.252Z,999.95
2019-03-03T12:02:28.232Z,999.90
2019-03-03T12:03:28.221Z,999.94
2019-03-03T12:04:28.208Z,999.82
2019-03-03T12:05:28.196Z,999.86
2019-03-03T12:06:28.195Z,999.88
2019-03-03T12:07:28.175Z,999.87